createdAt,value
2022-12-27T00:01:41.888Z,99033.36
2022-12-27T00:04:10.728Z,99037.79
2022-12-27T00:06:39.862Z,99036.73
2022-12-27T00:09:08.731Z,99039.90
2022-12-27T00:11:37.677Z,99040.55
2022-12-27T00:14:08.026Z,99043.05
2022-12-27T00:16:36.879Z,99044.88
2022-12-27T00:19:05.847Z,99046.52
2022-12-27T00:21:35.214Z,99049.21
2022-12-27T00:24:04.099Z,99052.09
2022-12-27T00:26:33.749Z,99055.33
2022-12-27T00:29:02.716Z,99058.19
2022-12-27T00:31:31.952Z,99054.90
2022-12-27T00:34:01.525Z,99058.54
2022-12-27T00:36:31.872Z,99056.01
2022-12-27T00:39:00.851Z,99064.91
2022-12-27T00:41:29.801Z,99070.58
2022-12-27T00:43:58.713Z,99074.04
2022-12-27T00:46:27.647Z,99075.07
2022-12-27T00:48:58.627Z,99077.77
2022-12-27T00:51:27.687Z,99081.14
2022-12-27T00:53:57.437Z,99083.95
2022-12-27T00:56:27.698Z,99085.73
2022-12-27T00:58:56.896Z,99085.34
2022-12-27T01:01:26.581Z,99086.73
2022-12-27T01:03:55.676Z,99090.87
2022-12-27T01:06:25.868Z,99088.66
2022-12-27T01:08:54.703Z,99098.80
2022-12-27T01:11:24.323Z,99103.77
2022-12-27T01:13:54.545Z,99104.36
2022-12-27T01:16:24.228Z,99104.85
2022-12-27T01:18:53.086Z,99108.95
2022-12-27T01:21:22.550Z,99113.21
2022-12-27T01:23:51.459Z,99114.30
2022-12-27T01:26:20.924Z,99117.21
2022-12-27T01:28:50.106Z,99115.13
2022-12-27T01:31:19.547Z,99112.33
2022-12-27T01:33:48.410Z,99120.25
2022-12-27T01:36:18.003Z,99124.71
2022-12-27T01:38:48.075Z,99130.50
2022-12-27T01:41:37.947Z,99134.52
2022-12-27T01:44:20.386Z,99141.44
2022-12-27T01:46:49.531Z,99138.48
2022-12-27T01:49:18.514Z,99140.77
2022-12-27T01:51:47.406Z,99139.90
2022-12-27T01:54:16.217Z,99140.30
2022-12-27T01:56:45.254Z,99141.10
2022-12-27T01:59:14.263Z,99140.23
2022-12-27T02:01:44.084Z,99141.86
2022-12-27T02:04:13.959Z,99147.83
2022-12-27T02:06:42.873Z,99155.09
2022-12-27T02:09:13.789Z,99158.56
2022-12-27T02:11:52.208Z,99164.48
2022-12-27T02:14:26.196Z,99168.70
2022-12-27T02:16:56.902Z,99165.59
2022-12-27T02:19:28.934Z,99167.08
2022-12-27T02:22:14.093Z,99158.17
2022-12-27T02:24:56.467Z,99156.69
2022-12-27T02:27:29.694Z,99157.58
2022-12-27T02:30:00.050Z,99157.95
2022-12-27T02:32:30.455Z,99157.87
2022-12-27T02:35:04.022Z,99157.26
2022-12-27T02:37:33.710Z,99162.77
2022-12-27T02:40:24.867Z,99172.98
2022-12-27T02:43:11.051Z,99179.39
2022-12-27T02:45:59.939Z,99183.80
2022-12-27T02:48:46.301Z,99183.31
2022-12-27T02:51:36.809Z,99186.77
2022-12-27T02:54:08.062Z,99188.02
2022-12-27T02:56:56.323Z,99191.77
2022-12-27T02:59:27.732Z,99191.48
2022-12-27T03:02:15.920Z,99193.02
2022-12-27T03:04:49.456Z,99190.44
2022-12-27T03:07:22.876Z,99189.71
2022-12-27T03:10:10.541Z,99186.80
2022-12-27T03:13:07.621Z,99181.13
2022-12-27T03:15:56.563Z,99175.55
2022-12-27T03:18:29.692Z,99174.52
2022-12-27T03:21:24.808Z,99179.09
2022-12-27T03:24:11.958Z,99175.27
2022-12-27T03:26:41.108Z,99171.55
2022-12-27T03:29:27.507Z,99175.69
2022-12-27T03:32:14.462Z,99177.88
2022-12-27T03:34:44.124Z,99176.20
2022-12-27T03:37:30.906Z,99176.35
2022-12-27T03:40:02.781Z,99185.34
2022-12-27T03:42:49.773Z,99186.50
2022-12-27T03:45:19.097Z,99187.48
2022-12-27T03:47:48.513Z,99186.38
2022-12-27T03:50:19.040Z,99189.96
2022-12-27T03:52:49.117Z,99188.94
2022-12-27T03:55:18.569Z,99184.80
2022-12-27T03:57:47.393Z,99185.45
2022-12-27T04:00:16.709Z,99183.21
2022-12-27T04:02:45.926Z,99184.98
2022-12-27T04:05:14.954Z,99185.79
2022-12-27T04:08:01.551Z,99187.40
2022-12-27T04:10:47.919Z,99185.27
2022-12-27T04:13:34.424Z,99187.33
2022-12-27T04:16:21.457Z,99185.73
2022-12-27T04:19:07.845Z,99187.34
2022-12-27T04:21:54.655Z,99189.34
2022-12-27T04:24:41.443Z,99191.69
2022-12-27T04:27:28.020Z,99195.91
2022-12-27T04:30:14.702Z,99192.07
2022-12-27T04:33:01.381Z,99191.06
2022-12-27T04:35:30.223Z,99189.23
2022-12-27T04:37:59.086Z,99181.98
2022-12-27T04:41:00.912Z,99181.70
2022-12-27T04:43:58.750Z,99180.04
2022-12-27T04:46:45.204Z,99181.41
2022-12-27T04:49:36.633Z,99178.39
2022-12-27T04:52:23.861Z,99176.87
2022-12-27T04:54:58.608Z,99182.36
2022-12-27T04:57:28.265Z,99183.91
2022-12-27T05:00:14.819Z,99183.65
2022-12-27T05:02:43.835Z,99191.46
2022-12-27T05:05:12.984Z,99192.95
2022-12-27T05:07:59.537Z,99194.46
2022-12-27T05:10:46.426Z,99199.73
2022-12-27T05:13:32.869Z,99202.84
2022-12-27T05:16:01.803Z,99201.12
2022-12-27T05:18:30.727Z,99206.91
2022-12-27T05:21:03.857Z,99211.67
2022-12-27T05:23:50.143Z,99214.58
2022-12-27T05:26:22.871Z,99216.82
2022-12-27T05:28:52.136Z,99216.81
2022-12-27T05:31:21.037Z,99222.61
2022-12-27T05:33:50.233Z,99223.30
2022-12-27T05:36:19.224Z,99227.95
2022-12-27T05:38:48.217Z,99224.09
2022-12-27T05:41:17.208Z,99221.77
2022-12-27T05:43:46.392Z,99222.16
2022-12-27T05:46:15.960Z,99226.33
2022-12-27T05:48:44.992Z,99232.97
2022-12-27T05:51:14.647Z,99228.33
2022-12-27T05:53:43.572Z,99228.60
2022-12-27T05:56:13.624Z,99229.16
2022-12-27T05:58:42.628Z,99232.27
2022-12-27T06:01:12.684Z,99236.91
2022-12-27T06:03:41.781Z,99245.23
2022-12-27T06:06:10.767Z,99249.33
2022-12-27T06:08:39.699Z,99250.71
2022-12-27T06:11:09.284Z,99253.63
2022-12-27T06:13:38.450Z,99252.05
2022-12-27T06:16:08.177Z,99254.39
2022-12-27T06:18:37.784Z,99257.57
2022-12-27T06:21:08.086Z,99262.68
2022-12-27T06:23:38.293Z,99262.52
2022-12-27T06:26:07.965Z,99262.59
2022-12-27T06:28:36.868Z,99259.26
2022-12-27T06:31:05.887Z,99264.58
2022-12-27T06:33:35.295Z,99265.35
2022-12-27T06:36:07.901Z,99263.02
2022-12-27T06:38:37.251Z,99265.39
2022-12-27T06:41:06.891Z,99267.63
2022-12-27T06:43:36.078Z,99269.88
2022-12-27T06:46:05.741Z,99271.88
2022-12-27T06:48:34.729Z,99274.48
2022-12-27T06:51:06.008Z,99273.95
2022-12-27T06:53:36.308Z,99269.77
2022-12-27T06:56:06.196Z,99272.40
2022-12-27T06:58:35.107Z,99270.45
2022-12-27T07:01:09.376Z,99269.19
2022-12-27T07:03:39.706Z,99274.33
2022-12-27T07:06:09.282Z,99279.37
2022-12-27T07:08:38.339Z,99281.91
2022-12-27T07:11:07.853Z,99279.16
2022-12-27T07:13:37.576Z,99280.49
2022-12-27T07:16:07.341Z,99283.09
2022-12-27T07:18:36.649Z,99287.31
2022-12-27T07:21:06.674Z,99289.22
2022-12-27T07:23:35.955Z,99298.02
2022-12-27T07:26:05.102Z,99302.27
2022-12-27T07:28:34.421Z,99305.52
2022-12-27T07:31:06.555Z,99306.10
2022-12-27T07:33:35.521Z,99307.32
2022-12-27T07:36:04.720Z,99308.13
2022-12-27T07:38:33.809Z,99301.35
2022-12-27T07:41:15.089Z,99304.98
2022-12-27T07:43:44.582Z,99307.68
2022-12-27T07:46:14.764Z,99311.52
2022-12-27T07:48:43.873Z,99313.66
2022-12-27T07:51:12.929Z,99319.29
2022-12-27T07:53:42.151Z,99326.30
2022-12-27T07:56:11.696Z,99328.94
2022-12-27T07:58:41.269Z,99331.07
2022-12-27T08:01:10.723Z,99334.17
2022-12-27T08:03:40.091Z,99334.27
2022-12-27T08:06:09.564Z,99331.17
2022-12-27T08:08:39.090Z,99332.41
2022-12-27T08:11:08.267Z,99331.15
2022-12-27T08:13:37.388Z,99334.39
2022-12-27T08:16:07.185Z,99340.64
2022-12-27T08:18:36.109Z,99345.82
2022-12-27T08:21:05.195Z,99346.73
2022-12-27T08:23:34.525Z,99336.57
2022-12-27T08:26:03.376Z,99338.66
2022-12-27T08:28:32.854Z,99338.75
2022-12-27T08:31:01.786Z,99342.19
2022-12-27T08:33:31.108Z,99348.50
2022-12-27T08:36:00.003Z,99352.02
2022-12-27T08:38:29.306Z,99351.96
2022-12-27T08:40:58.129Z,99355.38
2022-12-27T08:43:29.829Z,99349.58
2022-12-27T08:46:03.311Z,99348.45
2022-12-27T08:48:33.857Z,99355.85
2022-12-27T08:51:11.918Z,99350.85
2022-12-27T08:53:42.047Z,99350.59
2022-12-27T08:56:10.894Z,99357.74
2022-12-27T08:58:39.768Z,99358.40
2022-12-27T09:01:09.276Z,99358.92
2022-12-27T09:03:38.349Z,99356.23
2022-12-27T09:06:11.760Z,99357.40
2022-12-27T09:08:40.623Z,99359.89
2022-12-27T09:11:11.608Z,99359.73
2022-12-27T09:13:40.588Z,99356.19
2022-12-27T09:16:11.083Z,99354.09
2022-12-27T09:18:39.982Z,99348.94
2022-12-27T09:21:09.854Z,99347.58
2022-12-27T09:23:38.855Z,99349.95
2022-12-27T09:26:08.694Z,99357.70
2022-12-27T09:28:37.610Z,99356.61
2022-12-27T09:31:07.055Z,99359.77
2022-12-27T09:33:36.324Z,99360.55
2022-12-27T09:36:05.955Z,99357.17
2022-12-27T09:38:34.969Z,99360.67
2022-12-27T09:41:05.016Z,99356.89
2022-12-27T09:43:36.528Z,99356.33
2022-12-27T09:46:05.613Z,99353.88
2022-12-27T09:48:35.131Z,99348.96
2022-12-27T09:51:04.737Z,99356.73
2022-12-27T09:53:35.184Z,99356.19
2022-12-27T09:56:04.183Z,99360.17
2022-12-27T09:58:38.171Z,99359.99
2022-12-27T10:01:10.296Z,99362.80
2022-12-27T10:03:39.204Z,99375.36
2022-12-27T10:06:12.607Z,99365.36
2022-12-27T10:08:43.347Z,99366.16
2022-12-27T10:11:34.560Z,99370.86
2022-12-27T10:14:04.875Z,99365.89
2022-12-27T10:16:33.984Z,99368.13
2022-12-27T10:19:07.081Z,99370.73
2022-12-27T10:21:36.577Z,99373.91
2022-12-27T10:24:07.750Z,99374.98
2022-12-27T10:26:37.762Z,99374.42
2022-12-27T10:29:14.937Z,99372.23
2022-12-27T10:31:43.945Z,99371.50
2022-12-27T10:34:12.762Z,99376.53
2022-12-27T10:36:41.625Z,99377.71
2022-12-27T10:39:12.783Z,99380.45
2022-12-27T10:41:45.152Z,99380.80
2022-12-27T10:44:14.040Z,99382.94
2022-12-27T10:46:44.496Z,99371.48
2022-12-27T10:49:22.189Z,99379.21
2022-12-27T10:51:51.672Z,99376.52
2022-12-27T10:54:22.335Z,99373.15
2022-12-27T10:56:51.201Z,99365.98
2022-12-27T10:59:20.650Z,99364.62
2022-12-27T11:01:51.111Z,99372.24
2022-12-27T11:04:21.727Z,99372.30
2022-12-27T11:06:51.498Z,99371.02
2022-12-27T11:09:24.185Z,99373.27
2022-12-27T11:11:53.062Z,99374.22
2022-12-27T11:14:22.066Z,99377.59
2022-12-27T11:16:50.973Z,99374.89
2022-12-27T11:19:24.575Z,99377.34
2022-12-27T11:21:53.871Z,99380.16
2022-12-27T11:24:22.932Z,99383.63
2022-12-27T11:26:54.110Z,99372.09
2022-12-27T11:29:23.824Z,99377.83
2022-12-27T11:31:52.868Z,99380.67
2022-12-27T11:34:24.914Z,99366.98
2022-12-27T11:36:54.424Z,99367.51
2022-12-27T11:39:39.668Z,99356.27
2022-12-27T11:42:09.072Z,99358.99
2022-12-27T11:44:38.941Z,99360.34
2022-12-27T11:47:08.996Z,99362.23
2022-12-27T11:49:38.521Z,99362.03
2022-12-27T11:52:17.340Z,99356.18
2022-12-27T11:54:50.422Z,99355.42
2022-12-27T11:57:21.973Z,99359.02
2022-12-27T11:59:58.433Z,99352.85
2022-12-27T12:02:29.238Z,99359.34
2022-12-27T12:05:15.478Z,99350.80
2022-12-27T12:07:51.743Z,99350.64
2022-12-27T12:10:25.577Z,99351.48
2022-12-27T12:12:58.097Z,99352.45
2022-12-27T12:15:32.451Z,99349.09
2022-12-27T12:18:03.908Z,99352.98
2022-12-27T12:20:44.429Z,99352.02
2022-12-27T12:23:19.971Z,99350.02
2022-12-27T12:26:06.211Z,99346.67
2022-12-27T12:28:59.035Z,99344.14
2022-12-27T12:31:32.856Z,99348.91
2022-12-27T12:34:05.402Z,99348.63
2022-12-27T12:36:41.563Z,99346.27
2022-12-27T12:39:11.198Z,99347.23
2022-12-27T12:41:47.704Z,99352.87
2022-12-27T12:44:25.176Z,99352.69
2022-12-27T12:46:56.045Z,99352.52
2022-12-27T12:49:29.281Z,99359.34
2022-12-27T12:52:04.280Z,99352.80
2022-12-27T12:54:38.131Z,99347.56
2022-12-27T12:57:10.100Z,99342.70
2022-12-27T12:59:43.500Z,99338.05
2022-12-27T13:02:19.692Z,99324.05
2022-12-27T13:04:59.092Z,99335.98
2022-12-27T13:07:36.229Z,99336.53
2022-12-27T13:10:19.166Z,99338.89
2022-12-27T13:12:52.811Z,99334.00
2022-12-27T13:15:24.505Z,99328.48
2022-12-27T13:17:56.941Z,99315.27
2022-12-27T13:27:21.629Z,99316.90
2022-12-27T13:30:00.418Z,99312.30
2022-12-27T13:32:36.704Z,99311.89
2022-12-27T13:35:08.932Z,99308.47
2022-12-27T13:37:41.283Z,99310.13
2022-12-27T13:40:15.677Z,99305.95
2022-12-27T13:42:52.000Z,99309.13
2022-12-27T13:45:38.004Z,99310.70
2022-12-27T13:48:17.392Z,99307.39
2022-12-27T13:50:51.935Z,99303.65
2022-12-27T13:53:34.099Z,99299.48
2022-12-27T13:56:27.269Z,99302.61
2022-12-27T13:58:59.873Z,99298.46
2022-12-27T14:01:37.849Z,99295.90
2022-12-27T14:04:16.319Z,99295.27
2022-12-27T14:06:49.400Z,99293.84
2022-12-27T14:09:34.963Z,99295.39
2022-12-27T14:12:08.280Z,99297.73
2022-12-27T14:14:37.708Z,99300.98
2022-12-27T14:17:11.336Z,99301.28
2022-12-27T14:19:57.092Z,99303.77
2022-12-27T14:22:33.891Z,99304.39
2022-12-27T14:25:17.832Z,99303.44
2022-12-27T14:28:12.421Z,99310.28
2022-12-27T14:31:07.226Z,99313.91
2022-12-27T14:34:07.934Z,99309.12
2022-12-27T14:36:53.371Z,99304.32
2022-12-27T14:39:35.373Z,99288.91
2022-12-27T14:42:15.592Z,99299.89
2022-12-27T14:44:58.077Z,99292.63
2022-12-27T14:47:43.792Z,99298.19
2022-12-27T14:50:29.927Z,99288.38
2022-12-27T14:53:03.848Z,99301.11
2022-12-27T14:55:41.401Z,99295.77
2022-12-27T14:58:25.240Z,99307.87
2022-12-27T15:00:58.195Z,99313.52
2022-12-27T15:03:35.813Z,99315.91
2022-12-27T15:06:09.909Z,99318.02
2022-12-27T15:08:42.869Z,99303.66
2022-12-27T15:11:31.339Z,99316.61
2022-12-27T15:14:04.303Z,99304.21
2022-12-27T15:16:35.263Z,99319.77
2022-12-27T15:19:10.823Z,99318.50
2022-12-27T15:21:51.901Z,99318.14
2022-12-27T15:24:32.632Z,99317.98
2022-12-27T15:27:02.653Z,99307.04
2022-12-27T15:29:36.132Z,99320.34
2022-12-27T15:32:08.295Z,99319.11
2022-12-27T15:34:45.036Z,99318.71
2022-12-27T15:37:31.205Z,99312.66
2022-12-27T15:40:00.436Z,99310.43
2022-12-27T15:42:38.668Z,99310.30
2022-12-27T15:45:13.407Z,99308.95
2022-12-27T15:47:48.433Z,99304.98
2022-12-27T15:50:23.925Z,99309.39
2022-12-27T15:53:00.569Z,99301.08
2022-12-27T15:55:35.702Z,99303.61
2022-12-27T15:58:14.883Z,99301.22
2022-12-27T16:00:44.992Z,99302.68
2022-12-27T16:03:34.776Z,99289.73
2022-12-27T16:06:04.651Z,99299.46
2022-12-27T16:08:35.229Z,99300.30
2022-12-27T16:11:05.756Z,99296.35
2022-12-27T16:13:41.872Z,99291.91
2022-12-27T16:16:14.204Z,99292.66
2022-12-27T16:18:52.873Z,99287.45
2022-12-27T16:21:22.952Z,99283.90
2022-12-27T16:23:53.293Z,99267.27
2022-12-27T16:26:22.795Z,99280.24
2022-12-27T16:28:55.613Z,99279.52
2022-12-27T16:31:25.657Z,99282.58
2022-12-27T16:33:55.181Z,99286.70
2022-12-27T16:36:25.573Z,99290.31
2022-12-27T16:39:03.827Z,99291.23
2022-12-27T16:41:57.819Z,99289.42
2022-12-27T16:44:30.652Z,99281.55
2022-12-27T16:47:07.580Z,99282.51
2022-12-27T16:49:41.219Z,99283.45
2022-12-27T16:52:16.879Z,99283.91
2022-12-27T16:54:53.047Z,99286.29
2022-12-27T16:57:30.511Z,99282.02
2022-12-27T17:00:01.621Z,99296.94
2022-12-27T17:02:33.270Z,99297.36
2022-12-27T17:05:05.985Z,99300.27
2022-12-27T17:07:47.192Z,99301.13
2022-12-27T17:10:34.010Z,99301.27
2022-12-27T17:13:04.215Z,99294.21
2022-12-27T17:15:33.449Z,99295.39
2022-12-27T17:18:05.758Z,99297.41
2022-12-27T17:20:34.849Z,99292.64
2022-12-27T17:23:03.812Z,99279.56
2022-12-27T17:25:35.562Z,99288.99
2022-12-27T17:28:06.643Z,99287.33
2022-12-27T17:30:38.168Z,99284.92
2022-12-27T17:33:17.525Z,99283.56
2022-12-27T17:35:51.734Z,99272.43
2022-12-27T17:38:25.597Z,99267.91
2022-12-27T17:40:58.521Z,99262.94
2022-12-27T17:43:48.631Z,99261.46
2022-12-27T17:46:22.119Z,99257.91
2022-12-27T17:48:51.087Z,99254.83
2022-12-27T17:51:21.800Z,99252.91
2022-12-27T17:54:09.231Z,99253.40
2022-12-27T17:57:01.760Z,99253.20
2022-12-27T17:59:31.291Z,99258.79
2022-12-27T18:02:00.769Z,99247.83
2022-12-27T18:04:30.487Z,99258.67
2022-12-27T18:06:59.707Z,99258.48
2022-12-27T18:09:42.272Z,99243.75
2022-12-27T18:12:11.805Z,99247.09
2022-12-27T18:14:40.679Z,99245.70
2022-12-27T18:17:11.885Z,99241.41
2022-12-27T18:19:40.725Z,99238.64
2022-12-27T18:22:11.414Z,99237.23
2022-12-27T18:24:40.352Z,99238.21
2022-12-27T18:27:17.237Z,99238.71
2022-12-27T18:29:46.064Z,99238.10
2022-12-27T18:32:15.766Z,99234.94
2022-12-27T18:34:45.670Z,99226.99
2022-12-27T18:37:16.669Z,99225.04
2022-12-27T18:39:49.227Z,99225.82
2022-12-27T18:42:18.517Z,99225.67
2022-12-27T18:44:48.661Z,99228.98
2022-12-27T18:47:18.821Z,99224.54
2022-12-27T18:49:52.266Z,99221.80
2022-12-27T18:52:22.611Z,99216.35
2022-12-27T18:54:51.945Z,99214.97
2022-12-27T18:57:29.181Z,99215.23
2022-12-27T19:00:02.806Z,99213.78
2022-12-27T19:02:33.799Z,99207.98
2022-12-27T19:05:15.352Z,99207.95
2022-12-27T19:07:44.185Z,99205.19
2022-12-27T19:10:16.678Z,99202.92
2022-12-27T19:12:45.518Z,99202.88
2022-12-27T19:15:17.148Z,99186.07
2022-12-27T19:17:46.982Z,99192.25
2022-12-27T19:20:20.269Z,99187.45
2022-12-27T19:22:51.608Z,99181.36
2022-12-27T19:25:21.794Z,99176.45
2022-12-27T19:28:03.839Z,99165.98
2022-12-27T19:30:36.870Z,99154.11
2022-12-27T19:33:08.078Z,99163.75
2022-12-27T19:35:36.923Z,99168.49
2022-12-27T19:38:05.712Z,99171.82
2022-12-27T19:40:34.506Z,99169.75
2022-12-27T19:43:03.492Z,99167.73
2022-12-27T19:45:32.367Z,99161.79
2022-12-27T19:48:01.186Z,99157.90
2022-12-27T19:50:30.005Z,99144.96
2022-12-27T19:52:58.901Z,99144.06
2022-12-27T19:55:28.003Z,99143.19
2022-12-27T19:57:57.636Z,99146.80
2022-12-27T20:00:26.696Z,99142.91
2022-12-27T20:02:55.812Z,99145.39
2022-12-27T20:06:14.860Z,99139.52
2022-12-27T20:08:19.053Z,99142.77
2022-12-27T20:10:48.031Z,99138.62
2022-12-27T20:13:17.023Z,99128.37
2022-12-27T20:15:45.924Z,99127.04
2022-12-27T20:18:14.739Z,99131.07
2022-12-27T20:20:43.748Z,99126.73
2022-12-27T20:23:12.769Z,99126.83
2022-12-27T20:25:42.401Z,99120.23
2022-12-27T20:28:12.908Z,99113.58
2022-12-27T20:30:42.584Z,99104.98
2022-12-27T20:33:11.657Z,99105.95
2022-12-27T20:35:40.583Z,99110.33
2022-12-27T20:38:10.375Z,99112.47
2022-12-27T20:40:40.457Z,99102.76
2022-12-27T20:43:09.384Z,99101.48
2022-12-27T20:45:38.478Z,99103.27
2022-12-27T20:48:09.338Z,99100.78
2022-12-27T20:50:38.517Z,99101.17
2022-12-27T20:53:07.506Z,99106.84
2022-12-27T20:55:36.388Z,99101.17
2022-12-27T20:58:05.385Z,99093.59
2022-12-27T21:00:34.799Z,99092.54
2022-12-27T21:03:03.726Z,99085.72
2022-12-27T21:05:32.725Z,99091.79
2022-12-27T21:08:01.709Z,99093.49
2022-12-27T21:10:30.674Z,99098.84
2022-12-27T21:12:59.705Z,99100.45
2022-12-27T21:15:31.105Z,99096.20
2022-12-27T21:18:00.182Z,99095.17
2022-12-27T21:20:29.224Z,99091.73
2022-12-27T21:22:58.167Z,99089.13
2022-12-27T21:25:27.025Z,99087.85
2022-12-27T21:27:56.097Z,99084.91
2022-12-27T21:30:25.055Z,99080.59
2022-12-27T21:32:53.974Z,99073.74
2022-12-27T21:35:22.841Z,99072.27
2022-12-27T21:37:51.759Z,99071.15
2022-12-27T21:40:20.634Z,99069.16
2022-12-27T21:42:50.316Z,99066.98
2022-12-27T21:45:19.185Z,99062.02
2022-12-27T21:47:48.071Z,99065.62
2022-12-27T21:50:17.095Z,99065.44
2022-12-27T21:52:45.960Z,99044.73
2022-12-27T21:55:14.918Z,99052.89
2022-12-27T21:57:43.894Z,99049.83
2022-12-27T22:00:14.067Z,99049.52
2022-12-27T22:02:43.183Z,99048.18
2022-12-27T22:05:12.329Z,99042.06
2022-12-27T22:07:41.534Z,99040.48
2022-12-27T22:10:12.075Z,99043.14
2022-12-27T22:12:40.957Z,99037.23
2022-12-27T22:15:10.619Z,99032.20
2022-12-27T22:17:39.487Z,99031.63
2022-12-27T22:20:10.088Z,99028.51
2022-12-27T22:22:39.012Z,99023.52
2022-12-27T22:25:09.023Z,99023.20
2022-12-27T22:27:37.982Z,99026.62
2022-12-27T22:30:07.783Z,99023.20
2022-12-27T22:32:36.829Z,99024.73
2022-12-27T22:35:06.403Z,99020.27
2022-12-27T22:37:35.482Z,99022.78
2022-12-27T22:40:04.839Z,99020.17
2022-12-27T22:42:47.538Z,99020.80
2022-12-27T22:45:16.633Z,99018.69
2022-12-27T22:47:45.540Z,99014.73
2022-12-27T22:50:14.660Z,99015.27
2022-12-27T22:52:45.379Z,99008.98
2022-12-27T22:55:14.462Z,99005.05
2022-12-27T22:57:43.279Z,99005.20
2022-12-27T23:00:14.595Z,98997.63
2022-12-27T23:02:51.849Z,98997.60
2022-12-27T23:05:20.855Z,98994.66
2022-12-27T23:08:04.286Z,98995.65
2022-12-27T23:10:35.953Z,98993.23
2022-12-27T23:13:04.831Z,98993.54
2022-12-27T23:15:33.890Z,98995.05
2022-12-27T23:18:03.354Z,98995.87
2022-12-27T23:20:32.416Z,98990.15
2022-12-27T23:23:01.261Z,98975.77
2022-12-27T23:25:30.157Z,98985.36
2022-12-27T23:28:00.342Z,98983.45
2022-12-27T23:30:29.230Z,98968.98
2022-12-27T23:32:58.068Z,98979.54
2022-12-27T23:35:27.463Z,98975.30
2022-12-27T23:37:57.352Z,98970.50
2022-12-27T23:40:26.481Z,98966.19
2022-12-27T23:43:02.537Z,98966.32
2022-12-27T23:45:41.378Z,98959.92
2022-12-27T23:48:10.210Z,98958.86
2022-12-27T23:50:39.555Z,98956.30
2022-12-27T23:53:09.192Z,98954.94
2022-12-27T23:55:38.062Z,98953.05
2022-12-27T23:58:06.863Z,98949.10
